createdAt,value
2022-11-05T00:00:36.401Z,99363.13
2022-11-05T00:03:22.621Z,99350.66
2022-11-05T00:06:10.100Z,99343.88
2022-11-05T00:08:55.814Z,99340.09
2022-11-05T00:11:42.615Z,99318.59
2022-11-05T00:14:28.728Z,99319.78
2022-11-05T00:16:55.569Z,99321.16
2022-11-05T00:19:22.774Z,99316.00
2022-11-05T00:22:08.185Z,99310.31
2022-11-05T00:24:54.078Z,99329.34
2022-11-05T00:27:20.934Z,99323.69
2022-11-05T00:29:48.070Z,99325.50
2022-11-05T00:32:14.933Z,99330.84
2022-11-05T00:34:41.810Z,99335.81
2022-11-05T00:37:08.935Z,99334.16
2022-11-05T00:39:35.779Z,99328.44
2022-11-05T00:42:21.314Z,99326.66
2022-11-05T00:45:03.745Z,99312.94
2022-11-05T00:47:50.340Z,99317.47
2022-11-05T00:50:21.179Z,99321.22
2022-11-05T00:52:55.488Z,99319.56
2022-11-05T00:55:38.071Z,99309.03
2022-11-05T00:58:10.524Z,99319.56
2022-11-05T01:00:39.969Z,99331.03
2022-11-05T01:03:09.737Z,99322.31
2022-11-05T01:05:42.840Z,99338.34
2022-11-05T01:08:11.869Z,99336.41
2022-11-05T01:10:42.957Z,99348.03
2022-11-05T01:13:12.946Z,99346.91
2022-11-05T01:15:40.616Z,99343.88
2022-11-05T01:18:07.909Z,99345.06
2022-11-05T01:20:34.757Z,99338.84
2022-11-05T01:23:01.953Z,99322.63
2022-11-05T01:25:28.825Z,99340.19
2022-11-05T01:27:55.926Z,99336.03
2022-11-05T01:30:23.533Z,99338.09
2022-11-05T01:32:50.442Z,99359.94
2022-11-05T01:35:18.100Z,99370.19
2022-11-05T01:37:45.702Z,99385.84
2022-11-05T01:40:23.575Z,99399.09
2022-11-05T01:42:50.672Z,99392.19
2022-11-05T01:45:26.169Z,99401.16
2022-11-05T01:48:08.498Z,99394.69
2022-11-05T01:50:54.704Z,99378.59
2022-11-05T01:53:30.434Z,99386.84
2022-11-05T01:56:22.652Z,99382.94
2022-11-05T01:58:59.809Z,99381.28
2022-11-05T02:01:27.225Z,99384.03
2022-11-05T02:03:58.574Z,99378.78
2022-11-05T02:06:27.548Z,99384.13
2022-11-05T02:09:00.814Z,99388.00
2022-11-05T02:11:27.951Z,99390.84
2022-11-05T02:13:54.999Z,99396.12
2022-11-05T02:16:30.628Z,99395.66
2022-11-05T02:19:19.838Z,99396.38
2022-11-05T02:22:05.520Z,99411.81
2022-11-05T02:24:45.798Z,99398.78
2022-11-05T02:27:20.267Z,99396.16
2022-11-05T02:30:07.762Z,99391.03
2022-11-05T02:32:53.834Z,99396.88
2022-11-05T02:35:33.654Z,99397.13
2022-11-05T02:38:07.522Z,99387.56
2022-11-05T02:40:52.986Z,99397.59
2022-11-05T02:43:42.844Z,99397.88
2022-11-05T02:46:32.607Z,99394.03
2022-11-05T02:49:19.302Z,99390.13
2022-11-05T02:51:57.238Z,99390.00
2022-11-05T02:54:34.043Z,99393.59
2022-11-05T02:57:03.039Z,99381.66
2022-11-05T02:59:30.093Z,99400.03
2022-11-05T03:01:57.233Z,99386.91
2022-11-05T03:04:24.992Z,99393.59
2022-11-05T03:07:03.621Z,99385.72
2022-11-05T03:09:37.755Z,99395.25
2022-11-05T03:12:31.461Z,99384.00
2022-11-05T03:15:26.645Z,99415.53
2022-11-05T03:18:16.303Z,99410.66
2022-11-05T03:21:12.302Z,99416.47
2022-11-05T03:23:46.721Z,99413.84
2022-11-05T03:26:25.629Z,99430.56
2022-11-05T03:28:59.821Z,99448.94
2022-11-05T03:31:28.949Z,99454.34
2022-11-05T03:33:56.723Z,99462.78
2022-11-05T03:36:27.729Z,99466.84
2022-11-05T03:38:56.345Z,99462.78
2022-11-05T03:41:24.620Z,99468.50
2022-11-05T03:43:54.845Z,99471.53
2022-11-05T03:46:28.028Z,99476.16
2022-11-05T03:48:56.007Z,99479.12
2022-11-05T03:51:41.982Z,99489.16
2022-11-05T03:54:09.812Z,99482.47
2022-11-05T03:56:48.585Z,99475.78
2022-11-05T03:59:16.298Z,99484.91
2022-11-05T04:01:44.216Z,99481.47
2022-11-05T04:04:11.396Z,99488.16
2022-11-05T04:06:56.824Z,99478.25
2022-11-05T04:09:42.911Z,99470.78
2022-11-05T04:12:31.277Z,99465.06
2022-11-05T04:14:58.399Z,99477.03
2022-11-05T04:17:25.254Z,99477.94
2022-11-05T04:20:11.182Z,99481.59
2022-11-05T04:22:56.929Z,99474.41
2022-11-05T04:25:23.762Z,99477.66
2022-11-05T04:27:51.131Z,99477.78
2022-11-05T04:30:19.264Z,99470.00
2022-11-05T04:33:06.208Z,99469.25
2022-11-05T04:35:36.218Z,99457.41
2022-11-05T04:38:08.701Z,99457.91
2022-11-05T04:40:35.873Z,99449.06
2022-11-05T04:43:03.039Z,99459.59
2022-11-05T04:45:32.106Z,99449.41
2022-11-05T04:47:59.193Z,99460.28
2022-11-05T04:50:26.347Z,99467.25
2022-11-05T04:52:53.306Z,99463.56
2022-11-05T04:55:20.944Z,99464.56
2022-11-05T04:57:49.603Z,99460.37
2022-11-05T05:00:17.888Z,99463.00
2022-11-05T05:02:45.609Z,99447.16
2022-11-05T05:05:15.281Z,99447.41
2022-11-05T05:07:42.449Z,99448.06
2022-11-05T05:10:12.699Z,99453.13
2022-11-05T05:12:39.552Z,99452.16
2022-11-05T05:15:06.808Z,99439.41
2022-11-05T05:17:34.118Z,99441.38
2022-11-05T05:20:19.620Z,99454.75
2022-11-05T05:22:56.194Z,99464.31
2022-11-05T05:25:23.351Z,99467.94
2022-11-05T05:27:50.474Z,99470.22
2022-11-05T05:30:17.932Z,99465.84
2022-11-05T05:32:44.824Z,99467.00
2022-11-05T05:35:14.714Z,99470.81
2022-11-05T05:37:44.649Z,99472.06
2022-11-05T05:40:14.914Z,99465.16
2022-11-05T05:42:44.532Z,99476.50
2022-11-05T05:45:12.670Z,99468.16
2022-11-05T05:47:39.554Z,99471.19
2022-11-05T05:50:06.465Z,99484.69
2022-11-05T05:52:33.583Z,99486.94
2022-11-05T05:55:00.733Z,99499.94
2022-11-05T05:57:27.621Z,99506.09
2022-11-05T05:59:54.720Z,99513.50
2022-11-05T06:02:23.009Z,99520.22
2022-11-05T06:04:50.291Z,99521.47
2022-11-05T06:07:17.147Z,99528.84
2022-11-05T06:09:43.992Z,99538.63
2022-11-05T06:12:11.087Z,99540.66
2022-11-05T06:14:37.944Z,99543.41
2022-11-05T06:17:06.824Z,99539.44
2022-11-05T06:19:33.900Z,99549.38
2022-11-05T06:22:00.766Z,99540.66
2022-11-05T06:24:27.619Z,99551.53
2022-11-05T06:26:54.717Z,99566.31
2022-11-05T06:29:21.584Z,99552.81
2022-11-05T06:31:48.433Z,99561.66
2022-11-05T06:34:15.542Z,99562.53
2022-11-05T06:36:42.660Z,99560.59
2022-11-05T06:39:11.172Z,99553.06
2022-11-05T06:42:04.004Z,99556.16
2022-11-05T06:44:25.435Z,99559.53
2022-11-05T06:46:52.546Z,99574.91
2022-11-05T06:49:19.445Z,99582.56
2022-11-05T06:51:46.305Z,99580.41
2022-11-05T06:54:13.445Z,99588.03
2022-11-05T06:56:40.310Z,99576.53
2022-11-05T06:59:08.508Z,99578.22
2022-11-05T07:01:35.969Z,99582.97
2022-11-05T07:04:03.392Z,99591.81
2022-11-05T07:06:35.801Z,99588.44
2022-11-05T07:09:04.450Z,99589.59
2022-11-05T07:11:31.322Z,99597.09
2022-11-05T07:13:58.190Z,99599.56
2022-11-05T07:16:25.286Z,99597.50
2022-11-05T07:18:52.934Z,99601.25
2022-11-05T07:21:19.808Z,99612.47
2022-11-05T07:23:47.652Z,99603.38
2022-11-05T07:26:14.524Z,99601.19
2022-11-05T07:28:41.423Z,99610.69
2022-11-05T07:31:08.603Z,99612.87
2022-11-05T07:33:36.819Z,99604.97
2022-11-05T07:36:03.923Z,99603.66
2022-11-05T07:38:31.091Z,99597.44
2022-11-05T07:40:59.527Z,99599.41
2022-11-05T07:43:26.380Z,99604.97
2022-11-05T07:45:53.517Z,99606.34
2022-11-05T07:48:20.427Z,99614.69
2022-11-05T07:50:51.658Z,99617.59
2022-11-05T07:53:20.675Z,99612.91
2022-11-05T07:55:47.561Z,99614.00
2022-11-05T07:58:14.560Z,99609.06
2022-11-05T08:00:41.748Z,99596.72
2022-11-05T08:03:13.148Z,99594.78
2022-11-05T08:05:44.609Z,99596.75
2022-11-05T08:08:14.548Z,99594.72
2022-11-05T08:10:41.909Z,99591.84
2022-11-05T08:13:10.046Z,99586.56
2022-11-05T08:15:37.721Z,99582.16
2022-11-05T08:18:13.296Z,99579.41
2022-11-05T08:20:41.677Z,99576.13
2022-11-05T08:23:09.116Z,99573.06
2022-11-05T08:25:36.526Z,99577.25
2022-11-05T08:28:08.564Z,99580.66
2022-11-05T08:30:35.705Z,99593.72
2022-11-05T08:33:05.753Z,99586.38
2022-11-05T08:35:34.642Z,99586.50
2022-11-05T08:38:03.071Z,99591.53
2022-11-05T08:40:31.725Z,99595.97
2022-11-05T08:43:05.596Z,99595.41
2022-11-05T08:45:33.060Z,99601.38
2022-11-05T08:48:00.858Z,99603.06
2022-11-05T08:50:28.262Z,99597.69
2022-11-05T08:52:55.144Z,99589.63
2022-11-05T08:55:22.268Z,99599.66
2022-11-05T08:57:49.162Z,99605.34
2022-11-05T09:00:16.365Z,99601.56
2022-11-05T09:02:43.548Z,99619.50
2022-11-05T09:05:11.944Z,99618.09
2022-11-05T09:07:38.832Z,99608.66
2022-11-05T09:10:06.309Z,99604.66
2022-11-05T09:12:33.175Z,99610.78
2022-11-05T09:15:00.033Z,99612.31
2022-11-05T09:17:27.183Z,99625.78
2022-11-05T09:19:54.026Z,99627.00
2022-11-05T09:22:20.864Z,99629.97
2022-11-05T09:24:48.009Z,99623.12
2022-11-05T09:27:14.938Z,99624.00
2022-11-05T09:29:42.367Z,99621.59
2022-11-05T09:32:09.581Z,99619.37
2022-11-05T09:34:36.642Z,99618.53
2022-11-05T09:37:04.023Z,99618.53
2022-11-05T09:39:31.109Z,99614.66
2022-11-05T09:42:02.935Z,99618.59
2022-11-05T09:44:47.603Z,99608.31
2022-11-05T09:47:19.297Z,99612.87
2022-11-05T09:49:50.233Z,99616.50
2022-11-05T09:52:28.868Z,99622.44
2022-11-05T09:54:56.800Z,99615.06
2022-11-05T09:57:27.996Z,99621.47
2022-11-05T10:00:01.359Z,99604.63
2022-11-05T10:02:33.156Z,99621.84
2022-11-05T10:05:10.038Z,99600.16
2022-11-05T10:07:44.085Z,99574.34
2022-11-05T10:10:27.349Z,99597.16
2022-11-05T10:12:57.486Z,99613.53
2022-11-05T10:15:28.997Z,99608.91
2022-11-05T10:17:59.432Z,99600.91
2022-11-05T10:20:31.672Z,99614.22
2022-11-05T10:23:01.693Z,99603.38
2022-11-05T10:25:32.110Z,99619.37
2022-11-05T10:27:59.553Z,99609.63
2022-11-05T10:30:26.436Z,99604.22
2022-11-05T10:32:56.705Z,99590.00
2022-11-05T10:35:25.322Z,99586.84
2022-11-05T10:37:53.674Z,99609.50
2022-11-05T10:40:33.804Z,99601.50
2022-11-05T10:43:04.486Z,99587.88
2022-11-05T10:45:49.874Z,99615.34
2022-11-05T10:48:29.371Z,99616.56
2022-11-05T10:50:57.340Z,99621.97
2022-11-05T10:53:28.628Z,99618.75
2022-11-05T10:55:58.384Z,99625.50
2022-11-05T10:58:31.705Z,99627.47
2022-11-05T11:00:58.509Z,99632.38
2022-11-05T11:03:39.197Z,99633.72
2022-11-05T11:06:25.541Z,99639.53
2022-11-05T11:08:54.755Z,99643.34
2022-11-05T11:11:34.345Z,99635.16
2022-11-05T11:14:23.181Z,99639.44
2022-11-05T11:16:51.640Z,99639.31
2022-11-05T11:19:26.125Z,99633.44
2022-11-05T11:22:05.159Z,99626.81
2022-11-05T11:24:39.011Z,99629.34
2022-11-05T11:27:10.453Z,99630.22
2022-11-05T11:29:45.067Z,99617.22
2022-11-05T11:32:17.495Z,99633.50
2022-11-05T11:34:46.793Z,99627.13
2022-11-05T11:37:28.704Z,99632.00
2022-11-05T11:40:03.184Z,99637.53
2022-11-05T11:42:32.627Z,99632.09
2022-11-05T11:45:04.333Z,99627.78
2022-11-05T11:47:32.350Z,99627.78
2022-11-05T11:50:01.651Z,99637.78
2022-11-05T11:52:36.212Z,99637.78
2022-11-05T11:55:15.392Z,99637.88
2022-11-05T11:57:52.967Z,99641.09
2022-11-05T12:00:21.253Z,99648.16
2022-11-05T12:03:22.517Z,99649.91
2022-11-05T12:06:02.878Z,99644.22
2022-11-05T12:08:45.260Z,99645.66
2022-11-05T12:11:20.953Z,99661.56
2022-11-05T12:13:58.695Z,99657.78
2022-11-05T12:16:33.109Z,99655.69
2022-11-05T12:19:14.504Z,99655.12
2022-11-05T12:22:00.024Z,99668.84
2022-11-05T12:24:48.251Z,99664.56
2022-11-05T12:27:29.052Z,99672.25
2022-11-05T12:30:09.552Z,99671.28
2022-11-05T12:32:55.178Z,99663.06
2022-11-05T12:35:47.040Z,99666.63
2022-11-05T12:38:36.144Z,99666.03
2022-11-05T12:41:15.260Z,99666.63
2022-11-05T12:43:49.059Z,99673.56
2022-11-05T12:46:34.852Z,99672.06
2022-11-05T12:49:30.929Z,99671.66
2022-11-05T12:52:06.176Z,99677.97
2022-11-05T12:54:38.771Z,99677.53
2022-11-05T12:57:08.831Z,99687.00
2022-11-05T12:59:57.920Z,99687.53
2022-11-05T13:02:40.132Z,99684.50
2022-11-05T13:05:14.483Z,99679.50
2022-11-05T13:08:03.198Z,99681.56
2022-11-05T13:10:35.259Z,99686.16
2022-11-05T13:13:32.722Z,99681.13
2022-11-05T13:16:05.094Z,99688.66
2022-11-05T13:18:42.546Z,99707.31
2022-11-05T13:21:10.701Z,99719.28
2022-11-05T13:23:45.777Z,99723.50
2022-11-05T13:26:43.569Z,99725.00
2022-11-05T13:29:19.724Z,99711.53
2022-11-05T13:31:53.684Z,99717.22
2022-11-05T13:34:20.867Z,99714.31
2022-11-05T13:37:18.373Z,99715.44
2022-11-05T13:39:49.945Z,99709.34
2022-11-05T13:42:38.515Z,99704.91
2022-11-05T13:45:28.426Z,99698.47
2022-11-05T13:48:29.771Z,99709.69
2022-11-05T13:51:22.131Z,99716.88
2022-11-05T13:54:05.128Z,99718.69
2022-11-05T13:56:57.174Z,99705.22
2022-11-05T13:59:56.689Z,99704.25
2022-11-05T14:02:38.916Z,99696.72
2022-11-05T14:05:08.103Z,99717.22
2022-11-05T14:07:46.430Z,99712.63
2022-11-05T14:10:16.436Z,99710.38
2022-11-05T14:12:49.088Z,99709.69
2022-11-05T14:15:20.525Z,99711.91
2022-11-05T14:18:02.634Z,99715.38
2022-11-05T14:20:32.534Z,99716.78
2022-11-05T14:23:17.804Z,99707.47
2022-11-05T14:25:45.113Z,99722.91
2022-11-05T14:28:36.805Z,99713.31
2022-11-05T14:31:20.649Z,99724.72
2022-11-05T14:34:10.569Z,99722.22
2022-11-05T14:36:39.740Z,99728.34
2022-11-05T14:39:24.129Z,99726.97
2022-11-05T14:42:04.765Z,99719.19
2022-11-05T14:44:34.328Z,99731.44
2022-11-05T14:47:06.330Z,99737.56
2022-11-05T14:49:37.838Z,99730.88
2022-11-05T14:52:08.092Z,99733.66
2022-11-05T14:54:42.684Z,99741.87
2022-11-05T14:57:13.538Z,99752.72
2022-11-05T14:59:53.636Z,99744.78
2022-11-05T15:02:25.438Z,99753.12
2022-11-05T15:05:30.762Z,99760.62
2022-11-05T15:08:00.161Z,99757.28
2022-11-05T15:10:30.558Z,99766.34
2022-11-05T15:13:04.643Z,99763.69
2022-11-05T15:15:40.489Z,99760.34
2022-11-05T15:18:30.996Z,99774.38
2022-11-05T15:21:00.667Z,99771.75
2022-11-05T15:23:35.933Z,99776.44
2022-11-05T15:26:11.558Z,99770.63
2022-11-05T15:28:39.967Z,99778.16
2022-11-05T15:31:23.730Z,99776.59
2022-11-05T15:33:50.839Z,99779.22
2022-11-05T15:36:25.338Z,99790.78
2022-11-05T15:39:23.006Z,99787.31
2022-11-05T15:41:39.660Z,99781.72
2022-11-05T15:44:23.830Z,99799.62
2022-11-05T15:47:15.014Z,99804.78
2022-11-05T15:49:44.220Z,99810.34
2022-11-05T15:52:16.402Z,99807.84
2022-11-05T15:54:44.035Z,99805.06
2022-11-05T15:57:19.236Z,99790.34
2022-11-05T15:59:47.187Z,99800.03
2022-11-05T16:02:14.041Z,99807.38
2022-11-05T16:04:46.117Z,99806.78
2022-11-05T16:07:13.224Z,99819.75
2022-11-05T16:09:52.205Z,99805.00
2022-11-05T16:12:19.498Z,99807.78
2022-11-05T16:14:56.848Z,99819.44
2022-11-05T16:17:25.992Z,99819.16
2022-11-05T16:19:53.528Z,99823.25
2022-11-05T16:22:20.735Z,99819.25
2022-11-05T16:24:48.249Z,99828.13
2022-11-05T16:27:19.675Z,99832.75
2022-11-05T16:29:52.836Z,99837.62
2022-11-05T16:32:28.531Z,99844.44
2022-11-05T16:35:02.533Z,99843.53
2022-11-05T16:37:35.856Z,99841.31
2022-11-05T16:40:03.845Z,99828.94
2022-11-05T16:42:33.683Z,99833.63
2022-11-05T16:45:00.556Z,99848.19
2022-11-05T16:47:27.715Z,99859.00
2022-11-05T16:49:54.632Z,99854.63
2022-11-05T16:52:21.565Z,99846.72
2022-11-05T16:54:48.687Z,99850.69
2022-11-05T16:57:28.506Z,99841.75
2022-11-05T16:59:55.964Z,99853.69
2022-11-05T17:02:22.955Z,99852.53
2022-11-05T17:04:49.946Z,99863.78
2022-11-05T17:07:17.197Z,99861.75
2022-11-05T17:09:44.080Z,99864.06
2022-11-05T17:12:11.706Z,99860.50
2022-11-05T17:14:38.833Z,99861.34
2022-11-05T17:17:07.027Z,99854.81
2022-11-05T17:19:33.896Z,99859.34
2022-11-05T17:22:01.035Z,99875.41
2022-11-05T17:24:27.914Z,99861.41
2022-11-05T17:26:54.820Z,99869.19
2022-11-05T17:29:21.941Z,99868.81
2022-11-05T17:31:49.046Z,99863.22
2022-11-05T17:34:15.946Z,99864.87
2022-11-05T17:36:43.051Z,99878.75
2022-11-05T17:39:10.988Z,99880.78
2022-11-05T17:41:37.838Z,99869.69
2022-11-05T17:44:04.964Z,99874.47
2022-11-05T17:46:31.800Z,99875.19
2022-11-05T17:48:58.652Z,99880.84
2022-11-05T17:51:25.766Z,99873.66
2022-11-05T17:53:52.628Z,99879.16
2022-11-05T17:56:30.527Z,99886.22
2022-11-05T17:59:01.128Z,99880.84
2022-11-05T18:01:30.533Z,99877.38
2022-11-05T18:03:57.892Z,99881.22
2022-11-05T18:06:25.941Z,99892.44
2022-11-05T18:08:52.794Z,99894.94
2022-11-05T18:11:19.921Z,99900.13
2022-11-05T18:13:46.780Z,99895.09
2022-11-05T18:16:13.639Z,99902.28
2022-11-05T18:18:40.814Z,99909.91
2022-11-05T18:21:07.655Z,99919.28
2022-11-05T18:23:34.541Z,99922.16
2022-11-05T18:26:01.648Z,99920.94
2022-11-05T18:28:31.044Z,99929.59
2022-11-05T18:30:57.914Z,99928.16
2022-11-05T18:33:25.152Z,99942.16
2022-11-05T18:35:52.014Z,99948.37
2022-11-05T18:38:18.892Z,99948.25
2022-11-05T18:40:45.999Z,99950.31
2022-11-05T18:43:13.280Z,99952.56
2022-11-05T18:45:40.388Z,99958.09
2022-11-05T18:48:07.500Z,99959.06
2022-11-05T18:50:34.348Z,99959.06
2022-11-05T18:53:01.196Z,99962.37
2022-11-05T18:55:28.312Z,99965.03
2022-11-05T18:57:55.181Z,99968.63
2022-11-05T19:00:22.116Z,99969.31
2022-11-05T19:02:49.331Z,99971.97
2022-11-05T19:05:34.499Z,99976.53
2022-11-05T19:08:01.631Z,99972.44
2022-11-05T19:10:28.514Z,99976.31
2022-11-05T19:12:55.588Z,99974.72
2022-11-05T19:15:22.754Z,99982.97
2022-11-05T19:17:49.625Z,99987.91
2022-11-05T19:20:16.781Z,99998.78
2022-11-05T19:22:46.942Z,99989.91
2022-11-05T19:25:13.812Z,99993.03
2022-11-05T19:27:42.556Z,100001.66
2022-11-05T19:30:10.034Z,100003.13
2022-11-05T19:32:36.898Z,100007.28
2022-11-05T19:35:04.123Z,100009.81
2022-11-05T19:37:31.261Z,100007.91
2022-11-05T19:39:58.107Z,100015.06
2022-11-05T19:42:25.074Z,100009.66
2022-11-05T19:44:52.196Z,100023.22
2022-11-05T19:47:19.065Z,100019.38
2022-11-05T19:49:45.900Z,100028.00
2022-11-05T19:52:13.018Z,100031.34
2022-11-05T19:54:39.900Z,100036.84
2022-11-05T19:57:06.788Z,100038.53
2022-11-05T19:59:33.889Z,100039.97
2022-11-05T20:02:00.870Z,100046.91
2022-11-05T20:04:28.084Z,100058.03
2022-11-05T20:06:54.954Z,100053.38
2022-11-05T20:09:23.138Z,100055.41
2022-11-05T20:11:54.529Z,100057.44
2022-11-05T20:14:22.293Z,100064.63
2022-11-05T20:16:49.672Z,100057.44
2022-11-05T20:19:20.112Z,100064.41
2022-11-05T20:21:46.966Z,100059.72
2022-11-05T20:24:22.104Z,100067.75
2022-11-05T20:26:51.397Z,100071.34
2022-11-05T20:29:18.313Z,100077.56
2022-11-05T20:31:45.204Z,100079.47
2022-11-05T20:34:12.320Z,100075.16
2022-11-05T20:36:39.630Z,100074.47
2022-11-05T20:39:06.534Z,100079.72
2022-11-05T20:41:33.680Z,100086.88
2022-11-05T20:44:00.573Z,100083.69
2022-11-05T20:46:27.732Z,100080.31
2022-11-05T20:48:55.055Z,100085.97
2022-11-05T20:51:22.960Z,100085.00
2022-11-05T20:53:54.579Z,100079.72
2022-11-05T20:56:24.299Z,100083.41
2022-11-05T20:58:51.722Z,100086.53
2022-11-05T21:01:19.487Z,100085.97
2022-11-05T21:03:47.816Z,100088.34
2022-11-05T21:06:15.313Z,100096.50
2022-11-05T21:08:42.838Z,100100.31
2022-11-05T21:11:10.603Z,100099.59
2022-11-05T21:13:38.665Z,100093.47
2022-11-05T21:16:07.362Z,100099.84
2022-11-05T21:18:36.576Z,100102.47
2022-11-05T21:21:08.402Z,100093.47
2022-11-05T21:23:35.888Z,100091.44
2022-11-05T21:26:04.843Z,100091.22
2022-11-05T21:28:31.950Z,100099.59
2022-11-05T21:31:03.744Z,100104.41
2022-11-05T21:33:30.934Z,100103.06
2022-11-05T21:35:57.856Z,100102.22
2022-11-05T21:38:24.985Z,100104.13
2022-11-05T21:40:51.889Z,100096.97
2022-11-05T21:43:18.732Z,100100.91
2022-11-05T21:45:46.004Z,100107.50
2022-11-05T21:48:15.025Z,100112.78
2022-11-05T21:51:01.084Z,100103.62
2022-11-05T21:53:46.795Z,100111.78
2022-11-05T21:56:40.711Z,100103.28
2022-11-05T21:59:30.017Z,100109.66
2022-11-05T22:02:01.494Z,100109.16
2022-11-05T22:04:36.108Z,100108.19
2022-11-05T22:07:03.467Z,100112.50
2022-11-05T22:09:30.649Z,100112.50
2022-11-05T22:11:57.664Z,100112.28
2022-11-05T22:14:24.861Z,100116.47
2022-11-05T22:16:51.968Z,100111.31
2022-11-05T22:19:19.265Z,100107.72
2022-11-05T22:21:46.113Z,100120.19
2022-11-05T22:24:13.441Z,100119.72
2022-11-05T22:26:41.433Z,100119.81
2022-11-05T22:29:08.997Z,100121.59
2022-11-05T22:31:36.941Z,100122.44
2022-11-05T22:34:05.265Z,100118.50
2022-11-05T22:36:33.341Z,100115.13
2022-11-05T22:39:00.523Z,100122.06
2022-11-05T22:41:27.511Z,100117.78
2022-11-05T22:43:54.569Z,100122.53
2022-11-05T22:46:24.238Z,100118.25
2022-11-05T22:48:51.629Z,100110.34
2022-11-05T22:51:23.993Z,100116.34
2022-11-05T22:53:51.145Z,100116.09
2022-11-05T22:56:19.953Z,100116.09
2022-11-05T22:58:47.060Z,100120.88
2022-11-05T23:01:15.679Z,100121.13
2022-11-05T23:03:44.172Z,100121.72
2022-11-05T23:06:38.610Z,100126.62
2022-11-05T23:09:29.675Z,100127.59
2022-11-05T23:11:57.374Z,100127.47
2022-11-05T23:14:24.829Z,100128.66
2022-11-05T23:17:10.035Z,100136.66
2022-11-05T23:19:55.885Z,100133.56
2022-11-05T23:22:44.081Z,100132.13
2022-11-05T23:25:14.305Z,100133.34
2022-11-05T23:27:41.177Z,100143.75
2022-11-05T23:30:19.385Z,100137.88
2022-11-05T23:32:47.212Z,100131.19
2022-11-05T23:35:14.540Z,100141.72
2022-11-05T23:37:59.875Z,100137.50
2022-11-05T23:40:29.438Z,100145.53
2022-11-05T23:43:15.787Z,100146.50
2022-11-05T23:46:03.272Z,100150.19
2022-11-05T23:48:35.312Z,100149.72
2022-11-05T23:51:07.762Z,100149.84
2022-11-05T23:53:36.735Z,100147.19
2022-11-05T23:56:07.946Z,100144.69
2022-11-05T23:58:35.407Z,100134.88
